Time;durP1;ratioP1;P1;durP2;ratioP2;P2;SDS_P1;SDS_P2;PMS_P1;PMS_P2;Temp;Humidity;BMP_temperature;BMP_pressure;BME280_temperature;BME280_humidity;BME280_pressure;Samples;Min_cycle;Max_cycle;Signal;HPM_P1;HPM_P2
2022/04/03 00:00:01;;;;;;;4.40;4.00;;;1.20;99.90;;;;;;5031819;28;20244;-84
2022/04/03 00:02:30;;;;;;;4.40;3.63;;;1.10;99.90;;;;;;5031925;28;20309;-84
2022/04/03 00:04:59;;;;;;;4.37;3.97;;;1.10;99.90;;;;;;5031931;28;20230;-84
2022/04/03 00:07:28;;;;;;;5.13;4.50;;;1.20;99.90;;;;;;5032031;28;20297;-84
2022/04/03 00:09:57;;;;;;;4.33;3.97;;;1.20;99.90;;;;;;5032061;28;20289;-84
2022/04/03 00:12:25;;;;;;;3.80;3.43;;;1.20;99.90;;;;;;5031997;28;20223;-84
2022/04/03 00:14:54;;;;;;;4.50;4.20;;;1.30;99.90;;;;;;5032060;28;20274;-84
2022/04/03 00:17:22;;;;;;;6.50;5.10;;;1.20;99.90;;;;;;5032091;28;20202;-84
2022/04/03 00:19:50;;;;;;;8.73;4.50;;;1.20;99.90;;;;;;5031963;28;20317;-84
2022/04/03 00:22:20;;;;;;;5.70;4.30;;;1.30;99.90;;;;;;5031738;28;20261;-84
2022/04/03 00:24:48;;;;;;;5.45;5.05;;;1.20;99.90;;;;;;5031969;28;20297;-83
2022/04/03 00:27:17;;;;;;;6.23;5.43;;;1.30;99.90;;;;;;5031971;28;20202;-84
2022/04/03 00:29:45;;;;;;;5.90;5.40;;;1.30;99.90;;;;;;5031417;28;20258;-84
2022/04/03 00:32:13;;;;;;;9.07;4.40;;;1.30;99.90;;;;;;5031652;28;20286;-83
2022/04/03 00:34:42;;;;;;;5.10;4.65;;;1.30;99.90;;;;;;5031989;28;20285;-83
2022/04/03 00:37:10;;;;;;;7.18;5.13;;;1.30;99.90;;;;;;5031728;28;20202;-84
2022/04/03 00:39:40;;;;;;;7.60;4.90;;;1.30;99.90;;;;;;5031336;28;20220;-84
2022/04/03 00:42:09;;;;;;;9.53;5.97;;;1.30;99.90;;;;;;5031499;28;20230;-83
2022/04/03 00:44:38;;;;;;;5.40;4.90;;;1.40;99.90;;;;;;5031867;28;20210;-84
2022/04/03 00:47:06;;;;;;;5.78;5.28;;;1.30;99.90;;;;;;5034507;28;20202;-83
2022/04/03 00:49:36;;;;;;;5.43;4.93;;;1.30;99.90;;;;;;5035490;28;20261;-83
2022/04/03 00:52:05;;;;;;;5.57;5.07;;;1.30;99.90;;;;;;5034996;28;20253;-83
2022/04/03 00:54:34;;;;;;;5.67;4.93;;;1.30;99.90;;;;;;5035297;28;20202;-83
2022/04/03 00:57:07;;;;;;;5.57;5.07;;;1.30;99.90;;;;;;5035617;28;20293;-83
2022/04/03 00:59:35;;;;;;;6.03;5.53;;;1.30;99.90;;;;;;5035397;28;20254;-83
2022/04/03 01:02:05;;;;;;;5.77;5.27;;;1.30;99.90;;;;;;5035155;28;20246;-84
2022/04/03 01:04:33;;;;;;;5.23;4.77;;;1.30;99.90;;;;;;5035210;28;20204;-83
2022/04/03 01:07:01;;;;;;;6.00;5.50;;;1.30;99.90;;;;;;5034929;28;20313;-83
2022/04/03 01:09:30;;;;;;;6.07;5.30;;;1.40;99.90;;;;;;5035076;28;20222;-83
2022/04/03 01:11:58;;;;;;;11.83;5.27;;;1.40;99.90;;;;;;5035253;28;20277;-83
2022/04/03 01:14:35;;;;;;;6.80;6.10;;;1.40;99.90;;;;;;5035140;28;20308;-83
2022/04/03 01:17:04;;;;;;;5.30;4.77;;;1.40;99.90;;;;;;5034991;28;20293;-83
2022/04/03 01:19:32;;;;;;;5.60;5.10;;;1.30;99.90;;;;;;5034608;28;20298;-83
2022/04/03 01:22:01;;;;;;;6.50;5.87;;;1.30;99.90;;;;;;5034851;28;20253;-83
2022/04/03 01:24:30;;;;;;;5.53;5.03;;;1.40;99.90;;;;;;5035046;28;20211;-83
2022/04/03 01:27:06;;;;;;;6.43;5.83;;;1.40;99.90;;;;;;5034898;28;20206;-83
2022/04/03 01:29:34;;;;;;;7.77;5.50;;;1.40;99.90;;;;;;5034976;28;20226;-83
2022/04/03 01:32:02;;;;;;;6.33;5.83;;;1.40;99.90;;;;;;5034652;28;20231;-83
2022/04/03 01:34:31;;;;;;;6.27;5.53;;;1.40;99.90;;;;;;5034782;28;20259;-84
2022/04/03 01:36:59;;;;;;;7.30;5.40;;;1.40;99.90;;;;;;5034210;28;20234;-83
2022/04/03 01:39:27;;;;;;;6.37;5.60;;;1.40;99.90;;;;;;5034612;28;20221;-83
2022/04/03 01:41:56;;;;;;;5.85;5.30;;;1.40;99.90;;;;;;5034133;28;20234;-83
2022/04/03 01:44:25;;;;;;;6.20;5.60;;;1.40;99.90;;;;;;5034397;28;20242;-84
2022/04/03 01:46:54;;;;;;;7.07;6.33;;;1.40;99.90;;;;;;5034469;28;20248;-83
2022/04/03 01:49:22;;;;;;;5.75;5.15;;;1.40;99.90;;;;;;5034699;28;20275;-84
2022/04/03 01:51:51;;;;;;;7.00;6.10;;;1.40;99.90;;;;;;5034265;28;20226;-84
2022/04/03 01:54:19;;;;;;;6.37;5.80;;;1.40;99.90;;;;;;5034429;28;20293;-83
2022/04/03 01:56:47;;;;;;;7.05;5.88;;;1.40;99.90;;;;;;5033890;28;20293;-84
2022/04/03 01:59:17;;;;;;;6.53;5.93;;;1.40;99.90;;;;;;5033189;28;20206;-84
2022/04/03 02:01:46;;;;;;;6.88;5.63;;;1.40;99.90;;;;;;5033878;28;20226;-84
2022/04/03 02:04:15;;;;;;;6.43;5.15;;;1.40;99.90;;;;;;5034472;28;20213;-84
2022/04/03 02:06:43;;;;;;;6.15;5.53;;;1.40;99.90;;;;;;5033962;28;20290;-83
2022/04/03 02:09:12;;;;;;;6.73;6.20;;;1.40;99.90;;;;;;5033663;28;20294;-84
2022/04/03 02:11:40;;;;;;;6.25;5.65;;;1.40;99.90;;;;;;5033528;28;20305;-83
2022/04/03 02:14:09;;;;;;;7.47;5.32;;;1.50;99.90;;;;;;5034041;28;20285;-83
2022/04/03 02:16:37;;;;;;;6.20;5.63;;;1.50;99.90;;;;;;5034044;28;20218;-83
2022/04/03 02:19:07;;;;;;;6.25;5.65;;;1.40;99.90;;;;;;5034387;28;20218;-83
2022/04/03 02:21:35;;;;;;;6.20;5.57;;;1.40;99.90;;;;;;5033362;28;20257;-83
2022/04/03 02:24:03;;;;;;;5.78;5.22;;;1.50;99.90;;;;;;5033665;28;20289;-83
2022/04/03 02:26:32;;;;;;;4.30;3.93;;;1.50;99.90;;;;;;5033579;28;20222;-83
2022/04/03 02:29:00;;;;;;;3.90;3.60;;;1.50;99.90;;;;;;5033593;28;20237;-83
2022/04/03 02:31:28;;;;;;;9.15;5.05;;;1.40;99.90;;;;;;5033469;28;20227;-83
2022/04/03 02:33:57;;;;;;;5.60;4.63;;;1.50;99.90;;;;;;5033956;28;20222;-83
2022/04/03 02:36:27;;;;;;;4.95;4.40;;;1.50;99.90;;;;;;5033735;28;20282;-83
2022/04/03 02:38:56;;;;;;;3.83;3.50;;;1.50;99.90;;;;;;5033641;28;20310;-83
2022/04/03 02:41:24;;;;;;;4.97;3.90;;;1.50;99.90;;;;;;5032985;28;20222;-83
2022/04/03 02:43:52;;;;;;;6.47;4.90;;;1.50;99.90;;;;;;5033479;28;20260;-83
2022/04/03 02:46:21;;;;;;;6.50;4.47;;;1.50;99.90;;;;;;5033466;28;20226;-84
2022/04/03 02:48:49;;;;;;;3.53;3.23;;;1.50;99.90;;;;;;5032998;28;20211;-83
2022/04/03 02:51:19;;;;;;;5.82;3.60;;;1.50;99.90;;;;;;5033206;28;20241;-83
2022/04/03 02:53:48;;;;;;;3.58;3.28;;;1.50;99.90;;;;;;5033385;28;20201;-83
2022/04/03 02:56:17;;;;;;;4.37;3.27;;;1.50;99.90;;;;;;5033221;28;20293;-84
2022/04/03 02:58:45;;;;;;;4.88;3.88;;;1.50;99.90;;;;;;5033344;28;20293;-83
2022/04/03 03:01:14;;;;;;;3.85;3.13;;;1.50;99.90;;;;;;5032871;28;20313;-83
2022/04/03 03:03:42;;;;;;;4.32;3.55;;;1.50;99.90;;;;;;5032800;28;20217;-83
2022/04/03 03:06:10;;;;;;;5.97;3.90;;;1.50;99.90;;;;;;5032511;28;20211;-83
2022/04/03 03:08:39;;;;;;;3.33;3.03;;;1.50;99.90;;;;;;5032517;28;20242;-83
2022/04/03 03:11:09;;;;;;;4.00;3.37;;;1.50;99.90;;;;;;5033031;28;20293;-83
2022/04/03 03:13:38;;;;;;;2.92;2.72;;;1.50;99.90;;;;;;5033203;28;20214;-83
2022/04/03 03:16:07;;;;;;;6.00;4.40;;;1.40;99.90;;;;;;5032927;28;20286;-83
2022/04/03 03:18:36;;;;;;;3.63;3.33;;;1.40;99.90;;;;;;5032722;28;20293;-83
2022/04/03 03:21:04;;;;;;;3.25;3.05;;;1.40;99.90;;;;;;5032288;28;20249;-83
2022/04/03 03:23:33;;;;;;;3.95;3.65;;;1.40;99.90;;;;;;5032499;28;20264;-83
2022/04/03 03:26:01;;;;;;;4.57;3.63;;;1.40;99.90;;;;;;5033060;28;20233;-83
2022/04/03 03:28:31;;;;;;;4.43;3.30;;;1.40;99.90;;;;;;5032134;28;20210;-83
2022/04/03 03:30:59;;;;;;;2.97;2.75;;;1.40;99.90;;;;;;5032434;28;20294;-83
2022/04/03 03:33:28;;;;;;;4.82;2.85;;;1.40;99.90;;;;;;5032482;28;20305;-83
2022/04/03 03:35:56;;;;;;;3.00;2.60;;;1.40;99.90;;;;;;5032503;28;20281;-83
2022/04/03 03:38:24;;;;;;;5.65;3.80;;;1.40;99.90;;;;;;5032339;28;20238;-83
2022/04/03 03:40:52;;;;;;;3.30;3.00;;;1.50;99.90;;;;;;5032371;28;20226;-83
2022/04/03 03:43:21;;;;;;;5.30;3.15;;;1.50;99.90;;;;;;5032264;28;20281;-83
2022/04/03 03:45:51;;;;;;;3.53;3.23;;;1.40;99.90;;;;;;5032397;28;20233;-83
2022/04/03 03:48:19;;;;;;;3.45;3.15;;;1.50;99.90;;;;;;5032228;28;20287;-83
2022/04/03 03:50:48;;;;;;;3.78;2.78;;;1.40;99.90;;;;;;5031785;28;20286;-83
2022/04/03 03:53:16;;;;;;;2.97;2.78;;;1.40;99.90;;;;;;5032483;28;20309;-83
2022/04/03 03:55:45;;;;;;;3.80;3.03;;;1.40;99.90;;;;;;5032178;28;20293;-83
2022/04/03 03:58:13;;;;;;;2.65;2.45;;;1.40;99.90;;;;;;5032483;28;20221;-83
2022/04/03 04:00:42;;;;;;;3.27;2.70;;;1.30;99.90;;;;;;5032188;28;20230;-83
2022/04/03 04:03:12;;;;;;;3.75;3.35;;;1.30;99.90;;;;;;5031879;28;20236;-83
2022/04/03 04:05:42;;;;;;;3.63;3.13;;;1.30;99.90;;;;;;5031994;28;20290;-83
2022/04/03 04:08:10;;;;;;;4.25;3.55;;;1.30;99.90;;;;;;5032037;28;20289;-83
2022/04/03 04:10:39;;;;;;;5.60;4.00;;;1.30;99.90;;;;;;5031808;28;20241;-83
2022/04/03 04:13:07;;;;;;;3.72;3.20;;;1.20;99.90;;;;;;5032119;28;20257;-83
2022/04/03 04:15:35;;;;;;;3.38;3.08;;;1.20;99.90;;;;;;5032172;28;20293;-83
2022/04/03 04:18:04;;;;;;;3.38;3.13;;;1.20;99.90;;;;;;5032145;28;20203;-83
2022/04/03 04:20:34;;;;;;;5.03;4.40;;;1.10;99.90;;;;;;5032098;28;20298;-83
2022/04/03 04:23:03;;;;;;;8.50;4.77;;;1.10;99.90;;;;;;5035888;28;20281;-83
2022/04/03 04:25:31;;;;;;;6.13;4.87;;;1.10;99.90;;;;;;5035646;28;20215;-83
2022/04/03 04:28:00;;;;;;;4.77;4.20;;;1.10;99.90;;;;;;5036060;28;20294;-83
2022/04/03 04:30:28;;;;;;;4.20;3.67;;;1.10;99.90;;;;;;5035411;28;20262;-83
2022/04/03 04:32:56;;;;;;;3.37;3.13;;;1.00;99.90;;;;;;5036056;28;20219;-83
2022/04/03 04:35:25;;;;;;;4.27;3.80;;;1.10;99.90;;;;;;5035825;28;20209;-83
2022/04/03 04:37:55;;;;;;;9.73;4.38;;;1.10;99.90;;;;;;5035720;28;20290;-83
2022/04/03 04:40:23;;;;;;;5.20;4.60;;;1.10;99.90;;;;;;5035445;28;20274;-83
2022/04/03 04:42:51;;;;;;;4.30;3.93;;;1.10;99.90;;;;;;5035154;28;20242;-83
2022/04/03 04:45:20;;;;;;;3.95;3.60;;;1.10;99.90;;;;;;5035923;28;20292;-83
2022/04/03 04:47:49;;;;;;;5.72;3.88;;;1.10;99.90;;;;;;5035754;28;20217;-83
2022/04/03 04:50:18;;;;;;;4.37;3.97;;;1.10;99.90;;;;;;5035670;28;20245;-83
2022/04/03 04:52:47;;;;;;;5.70;4.10;;;1.10;99.90;;;;;;5035219;28;20227;-83
2022/04/03 04:55:16;;;;;;;4.03;3.63;;;1.10;99.90;;;;;;5035417;28;20205;-83
2022/04/03 04:57:50;;;;;;;6.13;3.38;;;1.10;99.90;;;;;;5035172;28;20258;-83
2022/04/03 05:00:20;;;;;;;5.25;3.90;;;1.10;99.90;;;;;;5035148;28;20218;-84
2022/04/03 05:02:49;;;;;;;5.65;5.13;;;1.10;99.90;;;;;;5034947;28;20286;-84
2022/04/03 05:05:19;;;;;;;4.25;3.03;;;1.20;99.90;;;;;;5035153;28;20238;-83
2022/04/03 05:07:51;;;;;;;3.07;2.87;;;1.10;99.90;;;;;;5035013;28;20213;-84
2022/04/03 05:10:21;;;;;;;4.17;3.30;;;1.10;99.90;;;;;;5034929;28;20289;-84
2022/04/03 05:12:50;;;;;;;3.90;3.50;;;1.10;99.90;;;;;;5035099;28;20222;-84
2022/04/03 05:15:18;;;;;;;4.00;3.30;;;1.10;99.90;;;;;;5035145;28;20241;-84
2022/04/03 05:17:47;;;;;;;5.40;3.93;;;1.10;99.90;;;;;;5034675;28;20213;-84
2022/04/03 05:20:16;;;;;;;3.63;2.93;;;1.10;99.90;;;;;;5034730;28;20289;-84
2022/04/03 05:22:45;;;;;;;5.57;3.08;;;1.10;99.90;;;;;;5034484;28;20309;-84
2022/04/03 05:25:14;;;;;;;3.70;3.17;;;1.10;99.90;;;;;;5034564;28;20234;-84
2022/04/03 05:27:44;;;;;;;3.38;3.05;;;1.10;99.90;;;;;;5034528;28;20351;-84
2022/04/03 05:30:14;;;;;;;3.47;2.77;;;1.10;99.90;;;;;;5034594;28;20202;-84
2022/04/03 05:32:42;;;;;;;2.97;2.70;;;1.10;99.90;;;;;;5034669;28;20329;-84
2022/04/03 05:35:13;;;;;;;5.17;2.90;;;1.10;99.90;;;;;;5034750;28;20294;-84
2022/04/03 05:37:44;;;;;;;4.82;3.55;;;1.10;99.90;;;;;;5034523;28;20202;-84
2022/04/03 05:40:15;;;;;;;4.43;2.57;;;1.10;99.90;;;;;;5034843;28;20292;-84
2022/04/03 05:42:45;;;;;;;2.95;2.75;;;1.10;99.90;;;;;;5034090;28;20226;-84
2022/04/03 05:45:14;;;;;;;2.77;2.57;;;1.10;99.90;;;;;;5034276;28;20289;-84
2022/04/03 05:47:42;;;;;;;2.27;2.07;;;1.10;99.90;;;;;;5034343;28;20293;-84
2022/04/03 05:50:14;;;;;;;4.80;2.37;;;1.10;99.90;;;;;;5034202;28;20211;-84
2022/04/03 05:52:45;;;;;;;2.58;2.38;;;1.10;99.90;;;;;;5036078;28;20249;-85
2022/04/03 05:55:14;;;;;;;3.35;2.50;;;1.10;99.90;;;;;;5034645;28;20293;-84
2022/04/03 05:57:43;;;;;;;2.70;2.42;;;1.10;99.90;;;;;;5034612;28;20229;-84
2022/04/03 06:00:15;;;;;;;3.30;2.83;;;1.10;99.90;;;;;;5034162;28;20214;-84
2022/04/03 06:02:48;;;;;;;3.25;2.75;;;1.10;99.90;;;;;;5034179;28;20230;-84
2022/04/03 06:05:19;;;;;;;2.50;2.30;;;1.10;99.90;;;;;;5033775;28;20206;-84
2022/04/03 06:07:47;;;;;;;3.00;2.70;;;1.10;99.90;;;;;;5034224;28;20230;-84
2022/04/03 06:10:16;;;;;;;2.13;2.00;;;1.10;99.90;;;;;;5034183;28;20289;-84
2022/04/03 06:12:59;;;;;;;2.60;2.40;;;1.10;99.90;;;;;;5035710;28;20234;-84
2022/04/03 06:15:31;;;;;;;3.00;2.80;;;1.10;99.90;;;;;;5034166;28;20234;-84
2022/04/03 06:18:00;;;;;;;3.33;2.57;;;1.10;99.90;;;;;;5034213;28;20222;-84
2022/04/03 06:20:29;;;;;;;6.03;3.57;;;1.20;99.90;;;;;;5033959;28;20210;-84
2022/04/03 06:22:57;;;;;;;4.18;2.88;;;1.20;99.90;;;;;;5033438;28;20234;-84
2022/04/03 06:25:25;;;;;;;2.67;2.47;;;1.10;99.90;;;;;;5033691;28;20214;-84
2022/04/03 06:27:54;;;;;;;3.22;2.92;;;1.10;99.90;;;;;;5033614;28;20285;-84
2022/04/03 06:30:23;;;;;;;2.42;2.25;;;1.10;99.90;;;;;;5033316;28;20210;-84
2022/04/03 06:32:53;;;;;;;3.30;3.00;;;1.20;99.90;;;;;;5033873;28;20302;-84
2022/04/03 06:35:21;;;;;;;3.00;2.70;;;1.20;99.90;;;;;;5033565;28;20315;-84
2022/04/03 06:37:49;;;;;;;2.67;2.47;;;1.20;99.90;;;;;;5033278;28;20270;-84
2022/04/03 06:40:18;;;;;;;2.97;2.70;;;1.20;99.90;;;;;;5032820;28;20262;-85
2022/04/03 06:42:47;;;;;;;3.30;3.03;;;1.20;99.90;;;;;;5033167;28;20230;-84
2022/04/03 06:45:16;;;;;;;3.20;2.80;;;1.20;99.90;;;;;;5032925;28;20297;-84
2022/04/03 06:47:45;;;;;;;3.92;2.72;;;1.30;99.90;;;;;;5033417;28;20252;-84
2022/04/03 06:50:15;;;;;;;4.07;3.10;;;1.30;99.90;;;;;;5032998;28;20306;-84
2022/04/03 06:52:44;;;;;;;3.47;3.13;;;1.40;99.90;;;;;;5032939;28;20310;-85
2022/04/03 06:55:12;;;;;;;4.22;3.00;;;1.50;99.90;;;;;;5032932;28;20298;-84
2022/04/03 06:57:40;;;;;;;5.30;3.13;;;1.50;99.90;;;;;;5033304;28;20301;-84
2022/04/03 07:00:11;;;;;;;5.97;2.97;;;1.60;99.90;;;;;;5033127;28;20297;-84
2022/04/03 07:02:40;;;;;;;4.07;2.58;;;1.70;99.90;;;;;;5032839;28;20253;-84
2022/04/03 07:05:09;;;;;;;2.75;2.15;;;1.60;99.90;;;;;;5032265;28;20210;-84
2022/04/03 07:07:39;;;;;;;3.03;2.80;;;1.60;99.90;;;;;;5032701;28;20236;-84
2022/04/03 07:10:09;;;;;;;3.42;2.83;;;1.70;99.90;;;;;;5032587;28;20283;-84
2022/04/03 07:12:38;;;;;;;2.50;2.30;;;1.70;99.90;;;;;;5032807;28;20273;-84
2022/04/03 07:15:11;;;;;;;3.05;2.70;;;1.80;99.90;;;;;;5033094;28;20229;-85
2022/04/03 07:17:40;;;;;;;3.28;2.45;;;2.00;99.90;;;;;;5032820;28;20207;-85
2022/04/03 07:20:12;;;;;;;9.85;2.65;;;2.00;99.90;;;;;;5033360;28;20203;-85
2022/04/03 07:22:43;;;;;;;3.38;3.05;;;2.10;99.90;;;;;;5032630;28;20245;-85
2022/04/03 07:25:12;;;;;;;4.72;3.92;;;2.10;99.90;;;;;;5032588;28;20283;-85
2022/04/03 07:27:41;;;;;;;5.38;2.28;;;2.10;99.90;;;;;;5033009;28;20257;-85
2022/04/03 07:30:12;;;;;;;4.20;3.13;;;2.20;99.90;;;;;;5032639;28;20249;-85
2022/04/03 07:32:41;;;;;;;6.13;3.25;;;2.30;99.90;;;;;;5032711;28;20246;-85
2022/04/03 07:35:11;;;;;;;3.28;2.78;;;2.40;99.90;;;;;;5032953;28;20202;-85
2022/04/03 07:37:41;;;;;;;3.75;3.40;;;2.60;99.90;;;;;;5032337;28;20234;-87
2022/04/03 07:40:11;;;;;;;2.60;2.40;;;2.70;99.90;;;;;;5032924;28;20289;-86
2022/04/03 07:42:40;;;;;;;4.22;3.15;;;2.70;99.90;;;;;;5031974;28;20241;-86
2022/04/03 07:45:11;;;;;;;3.15;2.85;;;2.70;99.90;;;;;;5032355;28;20233;-86
2022/04/03 07:47:46;;;;;;;2.80;2.60;;;2.70;99.90;;;;;;5032221;28;20210;-85
2022/04/03 07:50:15;;;;;;;2.08;1.95;;;2.80;99.90;;;;;;5032312;28;20209;-86
2022/04/03 07:52:44;;;;;;;3.85;2.97;;;2.80;99.90;;;;;;5031941;28;20240;-86
2022/04/03 07:55:13;;;;;;;5.47;3.03;;;2.90;99.90;;;;;;5032442;28;20325;-85
2022/04/03 07:57:42;;;;;;;4.97;3.08;;;3.00;99.90;;;;;;5035907;28;20261;-85
2022/04/03 08:00:12;;;;;;;3.33;2.95;;;3.00;99.90;;;;;;5036468;28;20234;-85
2022/04/03 08:02:42;;;;;;;2.95;2.70;;;3.10;99.90;;;;;;5036637;28;20288;-85
2022/04/03 08:05:11;;;;;;;3.45;3.15;;;3.10;99.90;;;;;;5036222;28;20199;-84
2022/04/03 08:07:43;;;;;;;3.50;3.03;;;3.10;99.90;;;;;;5036534;28;20245;-85
2022/04/03 08:10:19;;;;;;;3.42;2.60;;;3.10;99.90;;;;;;5036072;28;20205;-85
2022/04/03 08:12:49;;;;;;;3.17;2.75;;;3.20;99.90;;;;;;5036413;28;20222;-85
2022/04/03 08:15:21;;;;;;;4.97;4.15;;;3.30;99.90;;;;;;5035939;28;20202;-85
2022/04/03 08:18:02;;;;;;;2.85;2.65;;;3.20;99.90;;;;;;5036048;28;20210;-85
2022/04/03 08:20:32;;;;;;;3.65;3.30;;;3.50;99.90;;;;;;5036183;28;20206;-85
2022/04/03 08:23:09;;;;;;;3.97;3.03;;;3.40;99.90;;;;;;5035832;28;20230;-85
2022/04/03 08:25:45;;;;;;;3.22;3.03;;;3.50;99.90;;;;;;5036055;28;20207;-85
2022/04/03 08:28:17;;;;;;;2.97;2.72;;;3.60;99.90;;;;;;5035816;28;20206;-84
2022/04/03 08:30:49;;;;;;;2.13;2.03;;;3.50;99.90;;;;;;5036192;28;20225;-85
2022/04/03 08:33:23;;;;;;;3.60;3.28;;;3.30;99.90;;;;;;5036002;28;20222;-85
2022/04/03 08:35:56;;;;;;;7.15;3.15;;;3.50;99.90;;;;;;5035894;28;20264;-85
2022/04/03 08:38:27;;;;;;;3.08;2.78;;;3.60;99.90;;;;;;5035632;28;20271;-84
2022/04/03 08:40:57;;;;;;;3.08;2.78;;;4.40;99.90;;;;;;5035714;28;20210;-85
2022/04/03 08:43:25;;;;;;;2.90;2.60;;;5.50;99.90;;;;;;5035326;28;20260;-84
2022/04/03 08:45:54;;;;;;;4.70;2.85;;;6.50;99.90;;;;;;5035304;28;20256;-85
2022/04/03 08:48:39;;;;;;;3.22;2.90;;;6.90;99.90;;;;;;5035103;28;20225;-85
2022/04/03 08:51:23;;;;;;;2.97;2.40;;;7.40;99.90;;;;;;5033688;28;20206;-85
2022/04/03 08:53:52;;;;;;;3.05;2.67;;;8.00;99.90;;;;;;5035499;28;20206;-85
2022/04/03 08:56:22;;;;;;;4.28;3.22;;;8.20;99.90;;;;;;5035134;28;20225;-84
2022/04/03 08:58:51;;;;;;;3.05;2.83;;;8.50;99.90;;;;;;5034965;28;20226;-84
2022/04/03 09:01:19;;;;;;;3.30;3.00;;;8.40;99.90;;;;;;5035412;28;20247;-83
2022/04/03 09:03:48;;;;;;;3.78;3.47;;;8.10;99.90;;;;;;5035170;28;20250;-84
2022/04/03 09:06:18;;;;;;;3.38;3.08;;;7.40;99.90;;;;;;5035091;28;20211;-84
2022/04/03 09:08:52;;;;;;;2.63;2.53;;;7.10;99.90;;;;;;5034805;28;20265;-84
2022/04/03 09:11:28;;;;;;;3.47;3.17;;;7.40;99.90;;;;;;5034934;28;20210;-84
2022/04/03 09:13:57;;;;;;;5.95;3.50;;;7.30;99.90;;;;;;5035373;28;20214;-84
2022/04/03 09:16:39;;;;;;;3.10;2.83;;;7.40;99.90;;;;;;5034742;28;20202;-85
2022/04/03 09:19:08;;;;;;;3.30;2.80;;;7.70;99.90;;;;;;5034818;28;20336;-84
2022/04/03 09:21:37;;;;;;;3.78;3.45;;;8.20;99.60;;;;;;5034079;28;20231;-84
2022/04/03 09:24:06;;;;;;;3.20;2.95;;;8.50;98.70;;;;;;5034113;28;20276;-84
2022/04/03 09:26:39;;;;;;;3.47;3.17;;;8.70;98.40;;;;;;5034863;28;20217;-84
2022/04/03 09:29:09;;;;;;;3.75;3.35;;;9.20;97.10;;;;;;5034919;28;20237;-84
2022/04/03 09:31:38;;;;;;;3.00;2.70;;;9.10;96.40;;;;;;5034601;28;20253;-84
2022/04/03 09:34:15;;;;;;;3.65;3.35;;;7.90;96.80;;;;;;5034571;28;20233;-83
2022/04/03 09:36:58;;;;;;;5.45;4.32;;;7.30;98.60;;;;;;5034422;28;20265;-83
2022/04/03 09:39:34;;;;;;;5.72;3.25;;;7.40;99.90;;;;;;5034028;28;20206;-84
2022/04/03 09:42:11;;;;;;;6.13;4.45;;;7.70;99.90;;;;;;5034512;28;20250;-84
2022/04/03 09:44:41;;;;;;;3.95;3.55;;;7.30;99.30;;;;;;5034194;28;20313;-84
2022/04/03 09:47:14;;;;;;;4.90;4.50;;;6.60;99.00;;;;;;5034250;28;20272;-84
2022/04/03 09:49:44;;;;;;;4.65;3.97;;;6.50;99.90;;;;;;5034122;28;20206;-84
2022/04/03 09:52:36;;;;;;;5.05;4.22;;;6.30;99.90;;;;;;5033599;28;20253;-84
2022/04/03 09:55:18;;;;;;;5.40;3.75;;;6.10;99.90;;;;;;5034314;28;20334;-83
2022/04/03 09:57:49;;;;;;;3.35;3.05;;;6.60;99.90;;;;;;5033923;28;20203;-83
2022/04/03 10:00:41;;;;;;;3.67;3.38;;;7.10;99.90;;;;;;5035761;28;20199;-83
2022/04/03 10:03:11;;;;;;;4.05;3.20;;;7.40;99.80;;;;;;5033605;28;20238;-83
2022/04/03 10:05:41;;;;;;;4.53;4.13;;;7.00;98.40;;;;;;5033335;28;20230;-83
2022/04/03 10:08:11;;;;;;;5.00;4.22;;;6.10;99.60;;;;;;5034113;28;20206;-83
2022/04/03 10:10:40;;;;;;;4.03;3.72;;;5.70;99.90;;;;;;5033294;28;20293;-83
2022/04/03 10:13:10;;;;;;;5.28;4.00;;;5.40;99.90;;;;;;5033198;28;20264;-84
2022/04/03 10:15:38;;;;;;;7.72;4.57;;;5.20;99.90;;;;;;5033560;28;20207;-84
2022/04/03 10:18:07;;;;;;;3.13;2.92;;;5.20;99.90;;;;;;5033219;28;20241;-83
2022/04/03 10:20:37;;;;;;;4.90;4.43;;;5.10;99.90;;;;;;5033708;28;20210;-83
2022/04/03 10:23:10;;;;;;;8.40;7.35;;;5.10;99.90;;;;;;5033646;28;20246;-83
2022/04/03 10:25:44;;;;;;;11.07;7.38;;;4.90;99.90;;;;;;5032954;28;20218;-84
2022/04/03 10:28:18;;;;;;;6.03;5.53;;;5.00;99.90;;;;;;5033312;28;20236;-83
2022/04/03 10:30:46;;;;;;;5.03;4.63;;;4.80;99.90;;;;;;5033031;28;20234;-83
2022/04/03 10:33:20;;;;;;;4.40;4.07;;;4.90;99.90;;;;;;5033354;28;20246;-83
2022/04/03 10:35:51;;;;;;;4.82;4.35;;;4.90;99.90;;;;;;5033496;28;20266;-83
2022/04/03 10:38:20;;;;;;;7.85;4.88;;;4.90;99.90;;;;;;5033084;28;20289;-84
2022/04/03 10:40:59;;;;;;;4.97;4.50;;;5.10;99.90;;;;;;5032141;28;20210;-83
2022/04/03 10:43:30;;;;;;;6.13;4.90;;;5.20;99.90;;;;;;5032637;28;20244;-83
2022/04/03 10:45:59;;;;;;;5.10;4.60;;;5.10;99.90;;;;;;5032789;28;20230;-83
2022/04/03 10:48:31;;;;;;;5.00;4.22;;;4.80;99.90;;;;;;5032875;28;20217;-83
2022/04/03 10:51:08;;;;;;;10.00;5.28;;;4.60;99.90;;;;;;5032425;28;20210;-83
2022/04/03 10:53:38;;;;;;;5.30;4.85;;;4.50;99.90;;;;;;5032879;28;20206;-83
2022/04/03 10:56:12;;;;;;;5.30;4.90;;;4.50;99.90;;;;;;5032685;28;20202;-83
2022/04/03 10:58:44;;;;;;;4.20;3.80;;;4.40;99.90;;;;;;5032824;28;20270;-83
2022/04/03 11:01:24;;;;;;;6.68;3.88;;;4.30;99.90;;;;;;5032037;28;20290;-83
2022/04/03 11:04:00;;;;;;;7.50;4.22;;;4.10;99.90;;;;;;5032564;28;20205;-83
2022/04/03 11:06:38;;;;;;;5.47;3.88;;;4.20;99.90;;;;;;5014457;28;20218;-83
2022/04/03 11:09:26;;;;;;;4.32;3.88;;;4.30;99.90;;;;;;5032013;28;20206;-83
2022/04/03 11:11:59;;;;;;;3.83;3.35;;;4.70;99.90;;;;;;5032338;28;20297;-83
2022/04/03 11:14:56;;;;;;;3.53;3.25;;;5.00;99.90;;;;;;5032555;28;20226;-83
2022/04/03 11:17:43;;;;;;;6.40;3.22;;;5.20;99.90;;;;;;5032518;28;20198;-83
2022/04/03 11:20:28;;;;;;;3.30;3.08;;;5.50;99.90;;;;;;5032136;28;20294;-83
2022/04/03 11:22:59;;;;;;;3.47;3.17;;;5.40;99.90;;;;;;5032242;28;20245;-83
2022/04/03 11:25:27;;;;;;;3.78;3.47;;;5.00;99.90;;;;;;5032415;28;20222;-83
2022/04/03 11:27:56;;;;;;;2.50;2.40;;;4.80;99.90;;;;;;5032004;28;20237;-83
2022/04/03 11:30:26;;;;;;;3.65;3.30;;;4.60;99.90;;;;;;5032113;28;20297;-83
2022/04/03 11:32:54;;;;;;;3.47;3.22;;;4.40;99.90;;;;;;5032128;28;20222;-83
2022/04/03 11:35:39;;;;;;;3.50;3.20;;;4.40;99.90;;;;;;5032146;28;20207;-83
2022/04/03 11:38:09;;;;;;;4.80;3.50;;;4.50;99.90;;;;;;5031988;28;20214;-83
2022/04/03 11:40:40;;;;;;;3.22;2.95;;;4.60;99.90;;;;;;5031507;28;20213;-83
2022/04/03 11:43:14;;;;;;;3.08;2.88;;;4.50;99.90;;;;;;5031753;28;20238;-84
2022/04/03 11:45:50;;;;;;;3.70;3.40;;;4.40;99.90;;;;;;5031868;28;20230;-84
2022/04/03 11:48:21;;;;;;;3.05;2.80;;;4.50;99.90;;;;;;5031977;28;20213;-83
2022/04/03 11:50:51;;;;;;;3.53;3.22;;;4.50;99.90;;;;;;5032090;28;20237;-84
2022/04/03 11:53:19;;;;;;;2.33;2.22;;;4.50;99.90;;;;;;5032011;28;20289;-84
2022/04/03 11:55:48;;;;;;;3.75;3.17;;;4.50;99.90;;;;;;5031712;28;20237;-84
2022/04/03 11:58:16;;;;;;;3.85;3.53;;;4.40;99.90;;;;;;5032194;28;20226;-84
2022/04/03 12:00:48;;;;;;;2.97;2.78;;;4.40;99.90;;;;;;5031517;28;20202;-84
2022/04/03 12:03:27;;;;;;;3.53;3.28;;;4.30;99.90;;;;;;5031716;28;20222;-83
2022/04/03 12:06:12;;;;;;;3.08;2.85;;;4.20;99.90;;;;;;5031555;28;20241;-84
2022/04/03 12:08:48;;;;;;;2.65;2.45;;;4.10;99.90;;;;;;5031716;28;20222;-84
2022/04/03 12:11:28;;;;;;;4.78;3.85;;;4.10;99.90;;;;;;5031182;28;20201;-84
2022/04/03 12:13:58;;;;;;;6.88;3.10;;;4.10;99.90;;;;;;5031756;28;20236;-84
2022/04/03 12:16:30;;;;;;;5.10;4.10;;;4.10;99.90;;;;;;5032019;28;20261;-84
2022/04/03 12:19:00;;;;;;;3.20;2.90;;;4.00;99.90;;;;;;5031755;28;20237;-84
2022/04/03 12:21:43;;;;;;;4.07;3.67;;;4.00;99.90;;;;;;5031056;28;20230;-84
2022/04/03 12:24:13;;;;;;;3.90;3.15;;;4.00;99.90;;;;;;5031621;28;20237;-84
2022/04/03 12:26:46;;;;;;;2.88;2.67;;;4.00;99.90;;;;;;5031328;28;20226;-83
2022/04/03 12:29:16;;;;;;;3.42;3.10;;;4.10;99.90;;;;;;5031871;28;20226;-84
2022/04/03 12:31:58;;;;;;;3.35;3.08;;;4.30;99.90;;;;;;5031040;28;20261;-84
2022/04/03 12:34:27;;;;;;;3.28;2.88;;;4.50;99.90;;;;;;5031412;28;20221;-84
2022/04/03 12:36:56;;;;;;;4.97;3.30;;;4.70;99.90;;;;;;5031335;28;20233;-84
2022/04/03 12:39:33;;;;;;;3.67;3.10;;;4.90;99.90;;;;;;5031291;28;20202;-84
2022/04/03 12:42:13;;;;;;;3.25;2.92;;;5.00;99.90;;;;;;5031649;28;20226;-84
2022/04/03 12:44:47;;;;;;;3.20;2.95;;;5.20;99.90;;;;;;5035026;28;20273;-84
2022/04/03 12:47:19;;;;;;;3.08;2.88;;;5.80;99.90;;;;;;5035334;28;20230;-84
2022/04/03 12:49:49;;;;;;;3.33;3.03;;;6.50;99.90;;;;;;5035143;28;20207;-84
2022/04/03 12:52:39;;;;;;;4.53;3.63;;;7.00;99.90;;;;;;5034431;28;20222;-84
2022/04/03 12:55:28;;;;;;;7.22;3.20;;;7.70;99.70;;;;;;5024759;28;20202;-84
2022/04/03 12:58:32;;;;;;;2.75;2.55;;;7.90;99.90;;;;;;5035212;28;20264;-84
2022/04/03 13:01:10;;;;;;;2.67;2.47;;;8.60;99.90;;;;;;5021860;28;20206;-84
2022/04/03 13:03:45;;;;;;;2.50;2.30;;;8.70;94.70;;;;;;5034660;28;20216;-84
2022/04/03 13:06:16;;;;;;;2.60;2.47;;;8.70;94.30;;;;;;5034136;28;20222;-84
2022/04/03 13:08:50;;;;;;;2.08;1.98;;;8.80;94.50;;;;;;5034591;28;20202;-85
2022/04/03 13:11:27;;;;;;;4.25;2.67;;;9.00;94.00;;;;;;5034734;28;20212;-85
2022/04/03 13:13:56;;;;;;;2.72;2.53;;;9.30;94.10;;;;;;5034608;28;20202;-85
2022/04/03 13:16:24;;;;;;;2.60;2.40;;;9.30;92.60;;;;;;5034380;28;20194;-84